createdAt,value
2022-10-16T00:01:53.918Z,95970.94
2022-10-16T00:04:22.028Z,95965.34
2022-10-16T00:06:49.979Z,95973.09
2022-10-16T00:09:18.395Z,95967.56
2022-10-16T00:11:47.900Z,95965.94
2022-10-16T00:14:17.016Z,95961.97
2022-10-16T00:16:48.334Z,95973.38
2022-10-16T00:19:16.412Z,95981.00
2022-10-16T00:21:44.336Z,95981.72
2022-10-16T00:24:15.435Z,95980.88
2022-10-16T00:26:49.368Z,95957.84
2022-10-16T00:29:19.710Z,95980.22
2022-10-16T00:31:50.867Z,95989.69
2022-10-16T00:34:23.196Z,95993.69
2022-10-16T00:36:57.008Z,95992.22
2022-10-16T00:39:25.847Z,95993.19
2022-10-16T00:41:53.896Z,95993.47
2022-10-16T00:44:50.816Z,95992.38
2022-10-16T00:47:23.553Z,95947.75
2022-10-16T00:49:53.887Z,95986.56
2022-10-16T00:52:22.191Z,95984.78
2022-10-16T00:55:54.464Z,95984.47
2022-10-16T01:06:15.662Z,95998.00
2022-10-16T01:08:55.849Z,95977.34
2022-10-16T01:11:30.199Z,96002.59
2022-10-16T01:14:04.950Z,95999.59
2022-10-16T01:16:41.165Z,95982.25
2022-10-16T01:19:27.695Z,95998.41
2022-10-16T01:22:46.451Z,95982.47
2022-10-16T01:25:33.464Z,95989.03
2022-10-16T01:28:20.530Z,95975.81
2022-10-16T01:31:05.614Z,95989.63
2022-10-16T01:40:02.691Z,95983.66
2022-10-16T01:42:37.383Z,95988.75
2022-10-16T01:45:12.356Z,95991.66
2022-10-16T01:52:34.510Z,96001.41
2022-10-16T01:55:50.899Z,95995.84
2022-10-16T01:58:28.051Z,95982.31
2022-10-16T02:01:36.742Z,96003.72
2022-10-16T02:08:42.663Z,96013.25
2022-10-16T02:12:09.019Z,96006.19
2022-10-16T02:14:40.528Z,95975.53
2022-10-16T02:17:19.046Z,96023.69
2022-10-16T02:19:55.453Z,96004.94
2022-10-16T02:22:33.999Z,96009.31
2022-10-16T02:25:08.652Z,96036.47
2022-10-16T02:27:43.044Z,96031.78
2022-10-16T02:30:16.776Z,96026.81
2022-10-16T02:32:47.148Z,95965.41
2022-10-16T02:35:16.714Z,95881.38
2022-10-16T02:37:48.478Z,96027.66
2022-10-16T02:40:21.543Z,96034.97
2022-10-16T02:42:55.045Z,95999.09
2022-10-16T02:46:08.596Z,96037.16
2022-10-16T02:49:02.776Z,96035.63
2022-10-16T03:02:00.879Z,96027.00
2022-10-16T03:05:32.310Z,95968.66
2022-10-16T03:08:04.148Z,96057.00
2022-10-16T03:10:33.489Z,96026.31
2022-10-16T03:13:02.629Z,96034.34
2022-10-16T03:16:12.460Z,96064.16
2022-10-16T03:25:39.867Z,96034.28
2022-10-16T03:29:34.132Z,95992.84
2022-10-16T03:37:04.417Z,96042.91
2022-10-16T03:40:14.841Z,96059.16
2022-10-16T03:57:10.303Z,96049.44
2022-10-16T04:00:05.567Z,96054.88
2022-10-16T04:06:32.366Z,96048.28
2022-10-16T04:09:05.933Z,96056.03
2022-10-16T04:11:57.355Z,96059.06
2022-10-16T04:14:32.790Z,96056.56
2022-10-16T04:27:31.069Z,96059.50
2022-10-16T04:30:28.007Z,96068.44
2022-10-16T04:33:12.685Z,96061.06
2022-10-16T04:36:19.299Z,96046.22
2022-10-16T04:46:12.439Z,96077.72
2022-10-16T04:48:43.057Z,96083.06
2022-10-16T04:51:15.120Z,95979.63
2022-10-16T04:53:50.643Z,96082.44
2022-10-16T04:56:42.798Z,96084.78
2022-10-16T04:59:22.613Z,96097.06
2022-10-16T05:02:12.407Z,96100.50
2022-10-16T05:05:57.443Z,96092.22
2022-10-16T05:08:33.959Z,96101.75
2022-10-16T05:11:30.014Z,96109.41
2022-10-16T05:15:09.888Z,96047.16
2022-10-16T05:23:16.749Z,96091.25
2022-10-16T05:26:08.855Z,96114.16
2022-10-16T05:29:10.094Z,96098.94
2022-10-16T05:31:54.458Z,96118.28
2022-10-16T05:35:07.570Z,96117.81
2022-10-16T05:41:37.611Z,96107.47
2022-10-16T05:44:29.034Z,96118.59
2022-10-16T05:47:27.490Z,96111.28
2022-10-16T05:49:57.086Z,96130.34
2022-10-16T05:52:25.461Z,96086.00
2022-10-16T05:54:53.341Z,96120.69
2022-10-16T05:57:21.257Z,96127.03
2022-10-16T05:59:49.210Z,96140.50
2022-10-16T06:02:17.102Z,96139.50
2022-10-16T06:04:45.272Z,96140.78
2022-10-16T06:07:14.544Z,96148.88
2022-10-16T06:09:42.437Z,96151.06
2022-10-16T06:12:10.342Z,96134.19
2022-10-16T06:14:38.273Z,96149.00
2022-10-16T06:17:07.422Z,96153.09
2022-10-16T06:19:35.485Z,96157.09
2022-10-16T06:22:05.310Z,96160.34
2022-10-16T06:24:34.524Z,96161.94
2022-10-16T06:27:02.372Z,96170.66
2022-10-16T06:29:30.199Z,96171.44
2022-10-16T06:31:58.136Z,96174.34
2022-10-16T06:34:26.094Z,96174.22
2022-10-16T06:36:53.931Z,96172.44
2022-10-16T06:39:21.996Z,96173.81
2022-10-16T06:41:51.287Z,96175.22
2022-10-16T06:44:19.163Z,96185.00
2022-10-16T06:46:47.100Z,96177.50
2022-10-16T06:49:16.917Z,96180.81
2022-10-16T06:51:44.757Z,96189.81
2022-10-16T06:54:12.605Z,96193.53
2022-10-16T06:56:40.465Z,96193.75
2022-10-16T06:59:09.676Z,96206.53
2022-10-16T07:01:37.509Z,96208.56
2022-10-16T07:04:05.406Z,96198.69
2022-10-16T07:06:35.424Z,96202.25
2022-10-16T07:09:08.082Z,96201.69
2022-10-16T07:11:36.812Z,96167.44
2022-10-16T07:14:05.089Z,96202.09
2022-10-16T07:16:35.157Z,96217.25
2022-10-16T07:19:04.799Z,96200.41
2022-10-16T07:21:37.105Z,96174.78
2022-10-16T07:24:07.226Z,96167.41
2022-10-16T07:26:37.942Z,96204.47
2022-10-16T07:29:05.960Z,96204.09
2022-10-16T07:31:35.351Z,96214.25
2022-10-16T07:34:03.213Z,96202.63
2022-10-16T07:36:31.181Z,96208.03
2022-10-16T07:39:00.001Z,96172.84
2022-10-16T07:41:29.012Z,96118.69
2022-10-16T07:44:01.046Z,96213.06
2022-10-16T07:46:29.243Z,96207.47
2022-10-16T07:48:58.542Z,96181.00
2022-10-16T07:51:27.926Z,96177.59
2022-10-16T07:53:56.068Z,96198.75
2022-10-16T07:56:24.453Z,96210.56
2022-10-16T07:58:52.913Z,96216.53
2022-10-16T08:01:21.509Z,96219.41
2022-10-16T08:03:51.572Z,96215.88
2022-10-16T08:06:26.677Z,96220.38
2022-10-16T08:08:56.744Z,96212.34
2022-10-16T08:11:25.351Z,96215.03
2022-10-16T08:13:53.282Z,96216.53
2022-10-16T08:16:21.199Z,96158.31
2022-10-16T08:18:49.409Z,96216.56
2022-10-16T08:21:21.312Z,96213.16
2022-10-16T08:23:55.056Z,96213.28
2022-10-16T08:26:26.475Z,96184.94
2022-10-16T08:28:54.798Z,96187.38
2022-10-16T08:31:23.445Z,96190.38
2022-10-16T08:33:52.245Z,96198.44
2022-10-16T08:36:20.170Z,96208.69
2022-10-16T08:38:52.920Z,96205.53
2022-10-16T08:41:52.634Z,96183.09
2022-10-16T08:44:35.255Z,96202.84
2022-10-16T08:47:15.226Z,96200.13
2022-10-16T08:49:45.202Z,96187.56
2022-10-16T08:52:14.510Z,96202.94
2022-10-16T08:54:48.400Z,96213.03
2022-10-16T08:57:23.130Z,96213.25
2022-10-16T08:59:53.354Z,96211.78
2022-10-16T09:02:30.728Z,96190.59
2022-10-16T09:05:23.943Z,96215.97
2022-10-16T09:10:46.161Z,96210.84
2022-10-16T09:13:23.334Z,96204.31
2022-10-16T09:15:58.026Z,96202.06
2022-10-16T09:18:32.935Z,96201.72
2022-10-16T09:21:10.943Z,96205.81
2022-10-16T09:23:39.776Z,96194.56
2022-10-16T09:26:14.520Z,96184.47
2022-10-16T09:28:42.633Z,96211.06
2022-10-16T09:31:18.551Z,96189.72
2022-10-16T09:33:50.404Z,96186.25
2022-10-16T09:36:20.023Z,96206.50
2022-10-16T09:38:47.976Z,96193.41
2022-10-16T09:41:22.896Z,96204.06
2022-10-16T09:43:55.080Z,96196.56
2022-10-16T09:46:31.186Z,96193.59
2022-10-16T09:49:00.918Z,96182.63
2022-10-16T09:51:31.154Z,96187.03
2022-10-16T09:54:01.624Z,96099.91
2022-10-16T09:56:33.482Z,96180.69
2022-10-16T09:59:03.672Z,96182.91
2022-10-16T10:01:34.056Z,96188.75
2022-10-16T10:04:04.767Z,96176.94
2022-10-16T10:06:35.449Z,96171.06
2022-10-16T10:09:16.117Z,96176.47
2022-10-16T10:11:49.082Z,96155.75
2022-10-16T10:14:26.348Z,96168.56
2022-10-16T10:17:03.749Z,96156.34
2022-10-16T10:19:33.009Z,96170.28
2022-10-16T10:22:00.953Z,96166.22
2022-10-16T10:24:28.858Z,96162.06
2022-10-16T10:27:09.435Z,96040.63
2022-10-16T10:29:51.730Z,96146.59
2022-10-16T10:32:33.156Z,96157.69
2022-10-16T10:35:15.168Z,96147.44
2022-10-16T10:37:57.985Z,96156.53
2022-10-16T10:40:36.473Z,96150.34
2022-10-16T10:43:19.287Z,96139.38
2022-10-16T10:45:49.760Z,96145.06
2022-10-16T10:51:06.338Z,96145.59
2022-10-16T10:53:45.200Z,96136.25
2022-10-16T10:56:25.287Z,96139.81
2022-10-16T10:59:27.312Z,96137.84
2022-10-16T11:02:01.956Z,96138.44
2022-10-16T11:04:42.590Z,96085.31
2022-10-16T11:07:17.659Z,96119.41
2022-10-16T11:09:50.225Z,96102.50
2022-10-16T11:12:21.160Z,96127.19
2022-10-16T11:14:55.879Z,96123.84
2022-10-16T11:17:28.027Z,96116.88
2022-10-16T11:20:00.725Z,96113.66
2022-10-16T11:22:34.754Z,96064.41
2022-10-16T11:25:13.645Z,96101.94
2022-10-16T11:27:45.834Z,96100.00
2022-10-16T11:30:20.758Z,96103.47
2022-10-16T11:33:12.324Z,96105.50
2022-10-16T11:35:46.413Z,96073.72
2022-10-16T11:38:20.528Z,96083.78
2022-10-16T11:40:52.359Z,96072.81
2022-10-16T11:43:27.194Z,96092.66
2022-10-16T11:45:59.924Z,96095.78
2022-10-16T11:48:34.695Z,96114.19
2022-10-16T11:51:11.532Z,96108.41
2022-10-16T11:53:47.417Z,96088.09
2022-10-16T11:56:17.720Z,96110.88
2022-10-16T11:58:56.184Z,96114.22
2022-10-16T12:01:32.436Z,96104.41
2022-10-16T12:04:19.299Z,96064.72
2022-10-16T12:06:52.138Z,96108.03
2022-10-16T12:09:25.058Z,96094.72
2022-10-16T12:11:53.027Z,96110.81
2022-10-16T12:14:57.335Z,96094.03
2022-10-16T12:17:29.012Z,96100.63
2022-10-16T12:20:01.800Z,96100.00
2022-10-16T12:22:32.092Z,96100.47
2022-10-16T12:25:00.512Z,96100.03
2022-10-16T12:27:31.808Z,96082.34
2022-10-16T12:30:01.788Z,96088.72
2022-10-16T12:32:46.215Z,96050.84
2022-10-16T12:35:22.837Z,96085.44
2022-10-16T12:37:51.978Z,96102.19
2022-10-16T12:40:29.989Z,96099.13
2022-10-16T12:42:57.935Z,96002.38
2022-10-16T12:45:29.660Z,96081.31
2022-10-16T12:48:01.216Z,96105.13
2022-10-16T12:50:33.089Z,96107.59
2022-10-16T12:53:01.828Z,96107.19
2022-10-16T12:55:37.368Z,96058.66
2022-10-16T12:58:24.397Z,96110.75
2022-10-16T13:00:58.704Z,96075.66
2022-10-16T13:03:51.302Z,96111.44
2022-10-16T13:06:30.192Z,96068.03
2022-10-16T13:09:33.591Z,96101.66
2022-10-16T13:12:13.875Z,96116.72
2022-10-16T13:15:21.737Z,96119.34
2022-10-16T13:17:59.841Z,96113.34
2022-10-16T13:20:35.716Z,96080.50
2022-10-16T13:23:15.836Z,96093.53
2022-10-16T13:25:58.999Z,96114.59
2022-10-16T13:28:32.235Z,96094.97
2022-10-16T13:31:02.396Z,96113.44
2022-10-16T13:33:35.887Z,96083.44
2022-10-16T13:36:06.973Z,96107.88
2022-10-16T13:38:37.052Z,96100.56
2022-10-16T13:41:07.138Z,96116.00
2022-10-16T13:43:37.718Z,96086.16
2022-10-16T13:46:07.539Z,96117.06
2022-10-16T13:48:36.607Z,96121.06
2022-10-16T13:51:12.972Z,96109.59
2022-10-16T13:53:41.620Z,96113.81
2022-10-16T13:56:15.181Z,96096.09
2022-10-16T13:58:43.755Z,96125.56
2022-10-16T14:01:19.650Z,96125.41
2022-10-16T14:03:48.687Z,96129.03
2022-10-16T14:06:23.165Z,96140.75
2022-10-16T14:08:55.877Z,96135.47
2022-10-16T14:11:25.306Z,96128.72
2022-10-16T14:13:54.007Z,96139.47
2022-10-16T14:16:24.227Z,96135.56
2022-10-16T14:18:58.413Z,96051.78
2022-10-16T14:21:28.161Z,96141.97
2022-10-16T14:23:57.079Z,96124.56
2022-10-16T14:26:27.657Z,96098.69
2022-10-16T14:29:12.634Z,96146.34
2022-10-16T14:31:41.693Z,96132.28
2022-10-16T14:34:25.512Z,96152.47
2022-10-16T14:36:54.852Z,96161.94
2022-10-16T14:39:25.030Z,96091.84
2022-10-16T14:41:54.631Z,96152.78
2022-10-16T14:44:28.845Z,96157.31
2022-10-16T14:46:56.940Z,96161.22
2022-10-16T14:49:26.208Z,96032.06
2022-10-16T14:51:56.018Z,96163.53
2022-10-16T14:54:23.881Z,96106.56
2022-10-16T14:56:53.823Z,96177.28
2022-10-16T14:59:30.171Z,96169.31
2022-10-16T15:01:58.290Z,96163.38
2022-10-16T15:04:26.200Z,96169.13
2022-10-16T15:06:56.728Z,96169.22
2022-10-16T15:09:24.989Z,96175.38
2022-10-16T15:11:52.852Z,96176.50
2022-10-16T15:14:20.754Z,96165.34
2022-10-16T15:16:48.651Z,96163.25
2022-10-16T15:19:16.499Z,96170.69
2022-10-16T15:21:44.642Z,96159.69
2022-10-16T15:24:19.210Z,96176.13
2022-10-16T15:26:50.307Z,96098.78
2022-10-16T15:29:18.268Z,96168.63
2022-10-16T15:31:48.486Z,96189.19
2022-10-16T15:34:16.529Z,96164.06
2022-10-16T15:36:44.443Z,96186.31
2022-10-16T15:39:16.476Z,96198.22
2022-10-16T15:41:45.007Z,96199.63
2022-10-16T15:44:12.978Z,95990.81
2022-10-16T15:46:40.845Z,96204.53
2022-10-16T15:49:08.979Z,96155.50
2022-10-16T15:51:40.534Z,96175.72
2022-10-16T15:54:08.495Z,96210.94
2022-10-16T15:56:38.284Z,96228.28
2022-10-16T15:59:06.997Z,96217.84
2022-10-16T16:01:35.691Z,96223.69
2022-10-16T16:04:10.888Z,96228.91
2022-10-16T16:06:48.475Z,96202.72
2022-10-16T16:09:16.567Z,96219.16
2022-10-16T16:11:45.798Z,96236.38
2022-10-16T16:14:15.451Z,96241.22
2022-10-16T16:16:43.775Z,96142.38
2022-10-16T16:19:12.118Z,96235.75
2022-10-16T16:21:40.205Z,96241.44
2022-10-16T16:24:09.189Z,96249.44
2022-10-16T16:26:40.663Z,96249.78
2022-10-16T16:29:13.288Z,96253.50
2022-10-16T16:31:42.066Z,96245.44
2022-10-16T16:34:10.725Z,96264.13
2022-10-16T16:36:39.850Z,96106.53
2022-10-16T16:39:08.378Z,96266.22
2022-10-16T16:41:36.264Z,96272.28
2022-10-16T16:44:06.472Z,96281.91
2022-10-16T16:46:36.400Z,96292.84
2022-10-16T16:49:05.419Z,96295.09
2022-10-16T16:51:36.929Z,96297.47
2022-10-16T16:54:08.502Z,96283.44
2022-10-16T16:56:37.551Z,96304.47
2022-10-16T16:59:05.890Z,96315.81
2022-10-16T17:01:35.180Z,96311.75
2022-10-16T17:04:03.298Z,96299.25
2022-10-16T17:06:34.224Z,96307.22
2022-10-16T17:09:04.570Z,96316.75
2022-10-16T17:11:32.823Z,96294.03
2022-10-16T17:14:01.906Z,96304.22
2022-10-16T17:16:34.419Z,96321.44
2022-10-16T17:19:04.839Z,96317.78
2022-10-16T17:21:33.198Z,96324.03
2022-10-16T17:24:02.042Z,96323.13
2022-10-16T17:26:30.857Z,96305.88
2022-10-16T17:29:01.367Z,96330.56
2022-10-16T17:31:31.228Z,96328.03
2022-10-16T17:34:00.095Z,96325.22
2022-10-16T17:36:31.028Z,96272.56
2022-10-16T17:39:01.747Z,96317.59
2022-10-16T17:41:29.615Z,96338.34
2022-10-16T17:43:57.633Z,96311.72
2022-10-16T17:46:26.209Z,96241.56
2022-10-16T17:48:56.035Z,96328.28
2022-10-16T17:51:25.737Z,96329.41
2022-10-16T17:53:56.715Z,96342.16
2022-10-16T17:56:25.607Z,96330.53
2022-10-16T17:58:56.084Z,96323.53
2022-10-16T18:01:26.017Z,96229.31
2022-10-16T18:03:55.707Z,96342.16
2022-10-16T18:06:23.876Z,96323.53
2022-10-16T18:08:51.856Z,96326.06
2022-10-16T18:11:21.758Z,96356.03
2022-10-16T18:13:52.501Z,96357.31
2022-10-16T18:16:20.721Z,96361.44
2022-10-16T18:18:48.962Z,96363.03
2022-10-16T18:21:20.486Z,96374.00
2022-10-16T18:23:51.017Z,96223.91
2022-10-16T18:26:22.636Z,96346.25
2022-10-16T18:28:53.702Z,96346.25
2022-10-16T18:31:23.003Z,96375.72
2022-10-16T18:33:51.554Z,96388.75
2022-10-16T18:36:21.808Z,96391.72
2022-10-16T18:38:50.594Z,96341.59
2022-10-16T18:41:19.449Z,96242.09
2022-10-16T18:43:49.003Z,96408.03
2022-10-16T18:46:19.196Z,96386.19
2022-10-16T18:48:48.216Z,96400.50
2022-10-16T18:51:19.247Z,96414.75
2022-10-16T18:53:50.164Z,96412.50
2022-10-16T18:56:20.429Z,96408.31
2022-10-16T18:58:51.740Z,96415.34
2022-10-16T19:01:22.438Z,96420.25
2022-10-16T19:03:54.939Z,96426.97
2022-10-16T19:06:23.061Z,96432.34
2022-10-16T19:08:51.036Z,96430.50
2022-10-16T19:11:20.939Z,96435.66
2022-10-16T19:13:51.253Z,96440.38
2022-10-16T19:16:21.610Z,96456.56
2022-10-16T19:18:50.408Z,96429.94
2022-10-16T19:21:18.964Z,96447.69
2022-10-16T19:23:47.112Z,96450.13
2022-10-16T19:26:17.157Z,96450.00
2022-10-16T19:28:46.326Z,96450.00
2022-10-16T19:31:17.689Z,96368.72
2022-10-16T19:33:47.449Z,96462.06
2022-10-16T19:36:18.073Z,96483.94
2022-10-16T19:38:46.849Z,96468.25
2022-10-16T19:41:16.148Z,96474.44
2022-10-16T19:43:44.701Z,96466.16
2022-10-16T19:46:14.200Z,96473.16
2022-10-16T19:48:48.752Z,96468.25
2022-10-16T19:51:19.543Z,96473.34
2022-10-16T19:53:48.824Z,96477.78
2022-10-16T19:56:19.239Z,96483.09
2022-10-16T19:58:47.526Z,96481.31
2022-10-16T20:01:16.968Z,96484.31
2022-10-16T20:03:47.788Z,96486.91
2022-10-16T20:06:17.452Z,96492.19
2022-10-16T20:08:48.010Z,96486.00
2022-10-16T20:11:18.911Z,96490.59
2022-10-16T20:13:47.197Z,96490.69
2022-10-16T20:16:17.893Z,96489.84
2022-10-16T20:18:48.266Z,96489.69
2022-10-16T20:21:17.841Z,96469.34
2022-10-16T20:23:47.198Z,96493.75
2022-10-16T20:26:15.595Z,96493.38
2022-10-16T20:28:44.169Z,96505.63
2022-10-16T20:31:22.583Z,96491.75
2022-10-16T20:33:53.091Z,96502.94
2022-10-16T20:36:22.916Z,96505.09
2022-10-16T20:38:50.807Z,96505.88
2022-10-16T20:41:19.910Z,96504.91
2022-10-16T20:43:49.752Z,96508.47
2022-10-16T20:46:21.835Z,96511.41
2022-10-16T20:48:51.496Z,96521.06
2022-10-16T20:51:21.448Z,96494.28
2022-10-16T20:53:53.278Z,96521.97
2022-10-16T20:56:21.655Z,96515.50
2022-10-16T20:58:49.740Z,96510.50
2022-10-16T21:01:19.405Z,96500.19
2022-10-16T21:03:53.504Z,96512.47
2022-10-16T21:06:21.604Z,96512.94
2022-10-16T21:08:49.940Z,96446.16
2022-10-16T21:11:20.103Z,96516.56
2022-10-16T21:13:48.323Z,96518.03
2022-10-16T21:16:17.228Z,96500.09
2022-10-16T21:18:45.124Z,96477.94
2022-10-16T21:21:21.192Z,96510.28
2022-10-16T21:23:49.671Z,96510.06
2022-10-16T21:26:18.354Z,96463.00
2022-10-16T21:28:46.454Z,96517.47
2022-10-16T21:31:15.959Z,96521.13
2022-10-16T21:33:44.102Z,96486.22
2022-10-16T21:36:18.794Z,96525.69
2022-10-16T21:41:19.880Z,96528.19
2022-10-16T21:43:48.037Z,96524.19
2022-10-16T21:46:17.335Z,96539.75
2022-10-16T21:48:45.291Z,96531.00
2022-10-16T21:51:14.364Z,96532.53
2022-10-16T21:53:43.592Z,96535.25
2022-10-16T21:56:15.580Z,96533.69
2022-10-16T21:58:44.029Z,96532.75
2022-10-16T22:01:13.991Z,96534.16
2022-10-16T22:03:42.204Z,96522.50
2022-10-16T22:06:11.374Z,96537.66
2022-10-16T22:08:40.450Z,96519.94
2022-10-16T22:11:12.259Z,96566.63
2022-10-16T22:13:41.004Z,96559.84
2022-10-16T22:16:10.043Z,96576.72
2022-10-16T22:18:39.225Z,96425.44
2022-10-16T22:21:08.323Z,96576.94
2022-10-16T22:23:36.615Z,96578.44
2022-10-16T22:26:06.571Z,96516.66
2022-10-16T22:28:36.314Z,96572.03
2022-10-16T22:31:06.214Z,96584.63
2022-10-16T22:36:09.159Z,96584.97
2022-10-16T22:38:38.395Z,96595.63
2022-10-16T22:41:09.403Z,96531.63
2022-10-16T22:43:39.702Z,96598.13
2022-10-16T22:46:10.178Z,96595.06
2022-10-16T22:48:38.347Z,96602.81
2022-10-16T22:51:07.759Z,96605.56
2022-10-16T22:53:36.460Z,96588.63
2022-10-16T22:56:05.121Z,96593.66
2022-10-16T22:58:33.112Z,96603.03
2022-10-16T23:01:02.852Z,96580.56
2022-10-16T23:03:30.839Z,96603.44
2022-10-16T23:05:58.684Z,96605.66
2022-10-16T23:08:26.532Z,96609.41
2022-10-16T23:10:54.400Z,96603.50
2022-10-16T23:13:22.253Z,96603.75
2022-10-16T23:15:50.115Z,96613.22
2022-10-16T23:18:19.412Z,96573.97
2022-10-16T23:20:47.261Z,96613.31
2022-10-16T23:23:15.116Z,96612.25
2022-10-16T23:25:47.508Z,96614.38
2022-10-16T23:30:48.453Z,96558.25
2022-10-16T23:33:16.326Z,96615.25
2022-10-16T23:35:45.580Z,96618.25
2022-10-16T23:38:13.476Z,96613.22
2022-10-16T23:40:41.347Z,96607.16
2022-10-16T23:43:09.194Z,96613.00
2022-10-16T23:45:37.066Z,96619.44
2022-10-16T23:48:05.028Z,96604.28
2022-10-16T23:50:32.912Z,96623.56
2022-10-16T23:53:06.572Z,96621.06
2022-10-16T23:55:37.853Z,96630.16
2022-10-16T23:58:05.747Z,96624.53
